UAE4CK OMDB-EGLL
Flight info
| Callsign | UAE4CK |
|---|---|
| Flight time | N/A |
| Altitude | 31000 |
| Route | ANVIX L223 TARDI N629 BOTAM Y855 LAKLU/N0505F320 Q204 NALKI G652 TOKRA DCT ALROK DCT BOSOB DCT ITRUX Y511 PMA Z712 WEJ/N0503F340 L677 GESON Q777 RASDA DCT OTHON DCT VAXOS DCT RDS UL609 MES DCT FSK DCT DISOR DCT LONTA UL608 DOLEV/N0482F360 DCT SABAD DCT KUBUD DCT SOTOV DCT XEBIX DCT USUDO DCT LIRSU DCT DENUT L608 COA/N0425F180 L179 SASKI L608 LOGAN |
| Aircraft | B77W/H-SDE1E2E3FGHIJ2J3J4J5M1RWXY/LB1D1 |
Departure
| Time | 2026-04-25 11:48 |
|---|---|
| Airport | Dubai International Airport (OMDB) |
Arrival
| Time | N/A |
|---|---|
| Airport | London Heathrow Airport (EGLL) |
| Time | Latitude | Longitude | Altitude | Speed | Heading |
|---|---|---|---|---|---|
| 2026-04-25 11:10 | 25.24928 | 55.36225 | 30 ft | 0 kts | 211° |
| 2026-04-25 11:28 | 25.24937 | 55.36231 | 29 ft | 3 kts | 211° |
| 2026-04-25 11:29 | 25.24954 | 55.36243 | 28 ft | 3 kts | 211° |
| 2026-04-25 11:29 | 25.24972 | 55.36255 | 31 ft | 3 kts | 211° |
| 2026-04-25 11:29 | 25.24985 | 55.36263 | 31 ft | 3 kts | 214° |
| 2026-04-25 11:29 | 25.24998 | 55.36276 | 32 ft | 3 kts | 256° |
| 2026-04-25 11:30 | 25.24997 | 55.36295 | 32 ft | 3 kts | 297° |
| 2026-04-25 11:30 | 25.24987 | 55.36313 | 32 ft | 2 kts | 301° |
| 2026-04-25 11:30 | 25.24985 | 55.36317 | 32 ft | 0 kts | 300° |
| 2026-04-25 11:34 | 25.24986 | 55.36315 | 32 ft | 2 kts | 300° |
| 2026-04-25 11:34 | 25.24992 | 55.36304 | 32 ft | 2 kts | 300° |
| 2026-04-25 11:35 | 25.24996 | 55.36296 | 32 ft | 2 kts | 300° |
| 2026-04-25 11:35 | 25.25003 | 55.36283 | 32 ft | 3 kts | 301° |
| 2026-04-25 11:35 | 25.25021 | 55.36252 | 31 ft | 7 kts | 302° |
| 2026-04-25 11:35 | 25.25057 | 55.36187 | 30 ft | 12 kts | 302° |
| 2026-04-25 11:36 | 25.25101 | 55.36109 | 27 ft | 12 kts | 302° |
| 2026-04-25 11:36 | 25.25144 | 55.36032 | 29 ft | 12 kts | 302° |
| 2026-04-25 11:36 | 25.25188 | 55.35955 | 29 ft | 12 kts | 302° |
| 2026-04-25 11:36 | 25.25231 | 55.35879 | 31 ft | 12 kts | 302° |
| 2026-04-25 11:37 | 25.25275 | 55.35802 | 29 ft | 12 kts | 302° |
| 2026-04-25 11:37 | 25.25318 | 55.35724 | 29 ft | 12 kts | 301° |
| 2026-04-25 11:37 | 25.25361 | 55.35647 | 30 ft | 12 kts | 302° |
| 2026-04-25 11:37 | 25.25405 | 55.35569 | 29 ft | 12 kts | 302° |
| 2026-04-25 11:38 | 25.25448 | 55.35492 | 29 ft | 12 kts | 301° |
| 2026-04-25 11:38 | 25.25491 | 55.35415 | 29 ft | 12 kts | 302° |
| 2026-04-25 11:38 | 25.25535 | 55.35338 | 29 ft | 12 kts | 302° |
| 2026-04-25 11:38 | 25.25578 | 55.35261 | 30 ft | 12 kts | 302° |
| 2026-04-25 11:39 | 25.25604 | 55.35215 | 28 ft | 0 kts | 302° |
| 2026-04-25 11:40 | 25.25606 | 55.35212 | 27 ft | 2 kts | 302° |
| 2026-04-25 11:40 | 25.25622 | 55.35185 | 29 ft | 6 kts | 308° |
| 2026-04-25 11:40 | 25.25661 | 55.35162 | 31 ft | 7 kts | 352° |
| 2026-04-25 11:40 | 25.25707 | 55.35175 | 27 ft | 7 kts | 23° |
| 2026-04-25 11:41 | 25.25760 | 55.35207 | 29 ft | 12 kts | 31° |
| 2026-04-25 11:41 | 25.25854 | 55.35271 | 30 ft | 19 kts | 31° |
| 2026-04-25 11:41 | 25.25966 | 55.35354 | 31 ft | 19 kts | 45° |
| 2026-04-25 11:41 | 25.26008 | 55.35491 | 26 ft | 19 kts | 96° |
| 2026-04-25 11:42 | 25.25954 | 55.35618 | 26 ft | 17 kts | 121° |
| 2026-04-25 11:42 | 25.25890 | 55.35732 | 26 ft | 17 kts | 122° |
| 2026-04-25 11:42 | 25.25827 | 55.35844 | 27 ft | 17 kts | 122° |
| 2026-04-25 11:42 | 25.25764 | 55.35956 | 27 ft | 17 kts | 122° |
| 2026-04-25 11:43 | 25.25700 | 55.36069 | 27 ft | 17 kts | 122° |
| 2026-04-25 11:43 | 25.25637 | 55.36181 | 27 ft | 17 kts | 122° |
| 2026-04-25 11:43 | 25.25574 | 55.36293 | 27 ft | 17 kts | 122° |
| 2026-04-25 11:43 | 25.25511 | 55.36405 | 27 ft | 17 kts | 122° |
| 2026-04-25 11:44 | 25.25448 | 55.36517 | 27 ft | 18 kts | 122° |
| 2026-04-25 11:44 | 25.25380 | 55.36640 | 30 ft | 20 kts | 121° |
| 2026-04-25 11:44 | 25.25303 | 55.36777 | 27 ft | 21 kts | 122° |
| 2026-04-25 11:44 | 25.25221 | 55.36922 | 27 ft | 22 kts | 122° |
| 2026-04-25 11:45 | 25.25137 | 55.37072 | 28 ft | 23 kts | 122° |
| 2026-04-25 11:45 | 25.25054 | 55.37219 | 28 ft | 23 kts | 121° |
| 2026-04-25 11:45 | 25.24967 | 55.37373 | 28 ft | 23 kts | 121° |
| 2026-04-25 11:45 | 25.24880 | 55.37528 | 28 ft | 23 kts | 122° |
| 2026-04-25 11:46 | 25.24798 | 55.37675 | 28 ft | 23 kts | 122° |
| 2026-04-25 11:46 | 25.24716 | 55.37820 | 27 ft | 21 kts | 122° |
| 2026-04-25 11:46 | 25.24680 | 55.37949 | 27 ft | 16 kts | 58° |
| 2026-04-25 11:46 | 25.24745 | 55.38005 | 29 ft | 11 kts | 33° |
| 2026-04-25 11:47 | 25.24799 | 55.38016 | 30 ft | 8 kts | 324° |
| 2026-04-25 11:47 | 25.24836 | 55.37967 | 30 ft | 9 kts | 303° |
| 2026-04-25 11:47 | 25.24905 | 55.37843 | 30 ft | 39 kts | 301° |
| 2026-04-25 11:47 | 25.25172 | 55.37365 | 32 ft | 106 kts | 302° |
| 2026-04-25 11:48 | 25.25667 | 55.36475 | 29 ft | 164 kts | 302° |
| 2026-04-25 11:48 | 25.26326 | 55.35285 | 240 ft | 187 kts | 301° |
| 2026-04-25 11:48 | 25.26982 | 55.34072 | 899 ft | 183 kts | 302° |
| 2026-04-25 11:48 | 25.27662 | 55.32853 | 1440 ft | 184 kts | 302° |
| 2026-04-25 11:49 | 25.28361 | 55.31601 | 1829 ft | 191 kts | 303° |
| 2026-04-25 11:49 | 25.29063 | 55.30325 | 2166 ft | 202 kts | 297° |
| 2026-04-25 11:49 | 25.29255 | 55.28753 | 2333 ft | 217 kts | 257° |
| 2026-04-25 11:49 | 25.28637 | 55.27168 | 2708 ft | 226 kts | 246° |
| 2026-04-25 11:50 | 25.27941 | 55.25576 | 3185 ft | 230 kts | 246° |
| 2026-04-25 11:50 | 25.27246 | 55.23974 | 3684 ft | 235 kts | 246° |
| 2026-04-25 11:50 | 25.26534 | 55.22325 | 4165 ft | 238 kts | 246° |
| 2026-04-25 11:50 | 25.25824 | 55.20672 | 4750 ft | 239 kts | 246° |
| 2026-04-25 11:51 | 25.25111 | 55.19002 | 5263 ft | 244 kts | 245° |
| 2026-04-25 11:51 | 25.24129 | 55.17474 | 5571 ft | 254 kts | 217° |
| 2026-04-25 11:51 | 25.22525 | 55.16744 | 6180 ft | 253 kts | 187° |
| 2026-04-25 11:51 | 25.20754 | 55.16768 | 6632 ft | 257 kts | 178° |
| 2026-04-25 11:52 | 25.19010 | 55.17233 | 7052 ft | 265 kts | 151° |
| 2026-04-25 11:52 | 25.17664 | 55.18669 | 7303 ft | 280 kts | 121° |
| 2026-04-25 11:52 | 25.16748 | 55.20624 | 7559 ft | 292 kts | 118° |
| 2026-04-25 11:52 | 25.15811 | 55.22640 | 8080 ft | 296 kts | 119° |
| 2026-04-25 11:53 | 25.14855 | 55.24662 | 8777 ft | 296 kts | 120° |
| 2026-04-25 11:53 | 25.13893 | 55.26679 | 9403 ft | 298 kts | 120° |
| 2026-04-25 11:53 | 25.12920 | 55.28712 | 10016 ft | 300 kts | 120° |
| 2026-04-25 11:53 | 25.11932 | 55.30769 | 10458 ft | 310 kts | 121° |
| 2026-04-25 11:54 | 25.10884 | 55.32939 | 10587 ft | 332 kts | 120° |
| 2026-04-25 11:54 | 25.09841 | 55.35304 | 10747 ft | 353 kts | 116° |
| 2026-04-25 11:54 | 25.07738 | 55.40506 | 11343 ft | 384 kts | 116° |
| 2026-04-25 11:55 | 25.06645 | 55.43233 | 11939 ft | 391 kts | 115° |
| 2026-04-25 11:55 | 25.05937 | 55.45075 | 12433 ft | 393 kts | 114° |
| 2026-04-25 11:55 | 25.04878 | 55.47863 | 13263 ft | 395 kts | 114° |
| 2026-04-25 11:55 | 25.03808 | 55.50667 | 14002 ft | 398 kts | 115° |
| 2026-04-25 11:56 | 25.02723 | 55.53488 | 14655 ft | 401 kts | 116° |
| 2026-04-25 11:56 | 25.01592 | 55.56331 | 14923 ft | 409 kts | 118° |
| 2026-04-25 11:56 | 25.00203 | 55.59067 | 14916 ft | 407 kts | 123° |
| 2026-04-25 11:56 | 24.98686 | 55.61704 | 15022 ft | 408 kts | 124° |
| 2026-04-25 11:57 | 24.97158 | 55.64373 | 15664 ft | 411 kts | 124° |
| 2026-04-25 11:57 | 24.95667 | 55.67074 | 16349 ft | 414 kts | 123° |
| 2026-04-25 11:57 | 24.94180 | 55.69813 | 16967 ft | 418 kts | 124° |
| 2026-04-25 11:57 | 24.92586 | 55.72470 | 17535 ft | 422 kts | 128° |
| 2026-04-25 11:58 | 24.90807 | 55.75118 | 18108 ft | 427 kts | 130° |
| 2026-04-25 11:58 | 24.88999 | 55.77737 | 18623 ft | 432 kts | 129° |
| 2026-04-25 11:58 | 24.87212 | 55.80364 | 19132 ft | 436 kts | 129° |
| 2026-04-25 11:58 | 24.85406 | 55.83068 | 19676 ft | 440 kts | 128° |
| 2026-04-25 11:59 | 24.83591 | 55.85804 | 20113 ft | 446 kts | 128° |
| 2026-04-25 11:59 | 24.81736 | 55.88569 | 20603 ft | 450 kts | 129° |
| 2026-04-25 11:59 | 24.79858 | 55.91347 | 21116 ft | 455 kts | 129° |
| 2026-04-25 12:00 | 24.75757 | 55.96668 | 22098 ft | 458 kts | 140° |
| 2026-04-25 12:00 | 24.73349 | 55.98991 | 22541 ft | 463 kts | 141° |
| 2026-04-25 12:00 | 24.68511 | 56.03761 | 23520 ft | 471 kts | 139° |
| 2026-04-25 12:01 | 24.66107 | 56.06234 | 23927 ft | 474 kts | 139° |
| 2026-04-25 12:01 | 24.63689 | 56.08727 | 24336 ft | 478 kts | 139° |
| 2026-04-25 12:01 | 24.61249 | 56.11229 | 24760 ft | 480 kts | 139° |
| 2026-04-25 12:01 | 24.58798 | 56.13741 | 25190 ft | 483 kts | 139° |
| 2026-04-25 12:02 | 24.54095 | 56.19225 | 26030 ft | 490 kts | 132° |
| 2026-04-25 12:02 | 24.51879 | 56.22086 | 26430 ft | 493 kts | 132° |
| 2026-04-25 12:02 | 24.49646 | 56.24974 | 26811 ft | 496 kts | 132° |
| 2026-04-25 12:03 | 24.47400 | 56.27864 | 27193 ft | 498 kts | 132° |
| 2026-04-25 12:03 | 24.45169 | 56.30719 | 27542 ft | 501 kts | 132° |
| 2026-04-25 12:03 | 24.42866 | 56.33649 | 27907 ft | 503 kts | 132° |
| 2026-04-25 12:03 | 24.40603 | 56.36523 | 28271 ft | 505 kts | 132° |
| 2026-04-25 12:04 | 24.38299 | 56.39445 | 28602 ft | 507 kts | 133° |
| 2026-04-25 12:04 | 24.35954 | 56.42421 | 28916 ft | 510 kts | 133° |
| 2026-04-25 12:04 | 24.33629 | 56.45370 | 29221 ft | 513 kts | 133° |
| 2026-04-25 12:04 | 24.31292 | 56.48333 | 29508 ft | 515 kts | 133° |
| 2026-04-25 12:05 | 24.28959 | 56.51330 | 29777 ft | 517 kts | 132° |
| 2026-04-25 12:05 | 24.26321 | 56.54007 | 28033 ft | 534 kts | 142° |